createdAt,value
2019-05-03T00:02:04.583Z,11.30
2019-05-03T00:04:33.429Z,11.17
2019-05-03T00:07:02.694Z,10.90
2019-05-03T00:09:32.012Z,10.60
2019-05-03T00:12:01.880Z,11.13
2019-05-03T00:14:32.374Z,11.03
2019-05-03T00:16:59.132Z,10.50
2019-05-03T00:19:27.962Z,9.93
2019-05-03T00:21:56.805Z,9.63
2019-05-03T00:24:25.657Z,10.77
2019-05-03T00:26:54.507Z,8.90
2019-05-03T00:29:23.335Z,9.73
2019-05-03T00:31:52.904Z,8.57
2019-05-03T00:34:22.591Z,8.20
2019-05-03T00:36:52.440Z,9.07
2019-05-03T00:39:21.714Z,8.50
2019-05-03T00:41:51.986Z,8.60
2019-05-03T00:44:18.801Z,8.53
2019-05-03T00:46:47.633Z,8.60
2019-05-03T00:49:17.223Z,9.67
2019-05-03T00:51:46.055Z,8.80
2019-05-03T00:54:14.872Z,8.27
2019-05-03T00:56:44.542Z,8.10
2019-05-03T00:59:12.839Z,7.73
2019-05-03T01:01:42.511Z,7.83
2019-05-03T01:04:11.852Z,7.50
2019-05-03T01:06:39.033Z,7.53
2019-05-03T01:09:07.882Z,7.97
2019-05-03T01:11:36.725Z,8.10
2019-05-03T01:14:05.569Z,7.73
2019-05-03T01:16:34.397Z,7.40
2019-05-03T01:19:03.974Z,7.67
2019-05-03T01:21:32.804Z,8.60
2019-05-03T01:24:01.770Z,8.00
2019-05-03T01:26:31.941Z,8.23
2019-05-03T01:29:00.057Z,7.73
2019-05-03T01:31:28.914Z,8.13
2019-05-03T01:33:57.730Z,8.00
2019-05-03T01:36:26.578Z,7.63
2019-05-03T01:38:55.421Z,8.98
2019-05-03T01:41:24.263Z,7.50
2019-05-03T01:43:53.100Z,7.77
2019-05-03T01:46:22.801Z,8.95
2019-05-03T01:48:52.221Z,8.47
2019-05-03T01:51:19.601Z,8.00
2019-05-03T01:53:48.458Z,8.98
2019-05-03T01:56:17.297Z,8.30
2019-05-03T01:58:46.129Z,8.13
2019-05-03T02:01:18.869Z,8.70
2019-05-03T02:03:52.269Z,8.33
2019-05-03T02:06:19.410Z,8.50
2019-05-03T02:08:48.254Z,9.43
2019-05-03T02:11:17.842Z,8.60
2019-05-03T02:13:46.693Z,9.40
2019-05-03T02:16:15.524Z,7.83
2019-05-03T02:18:44.367Z,8.67
2019-05-03T02:21:13.204Z,9.38
2019-05-03T02:23:42.720Z,8.87
2019-05-03T02:26:11.758Z,8.50
2019-05-03T02:28:42.022Z,9.00
2019-05-03T02:31:09.890Z,8.10
2019-05-03T02:33:38.722Z,8.67
2019-05-03T02:36:07.546Z,8.73
2019-05-03T02:38:36.390Z,8.57
2019-05-03T02:41:05.225Z,8.97
2019-05-03T02:43:36.375Z,8.57
2019-05-03T02:46:05.821Z,9.00
2019-05-03T02:48:36.212Z,9.33
2019-05-03T02:51:02.313Z,9.63
2019-05-03T02:53:31.138Z,10.50
2019-05-03T02:56:13.969Z,10.57
2019-05-03T02:58:28.838Z,11.75
2019-05-03T03:00:58.589Z,10.70
2019-05-03T03:03:27.433Z,9.80
2019-05-03T03:05:57.018Z,10.30
2019-05-03T03:08:26.799Z,10.10
2019-05-03T03:10:58.222Z,10.60
2019-05-03T03:13:27.076Z,9.50
2019-05-03T03:15:55.942Z,8.93
2019-05-03T03:18:25.560Z,8.90
2019-05-03T03:20:55.264Z,9.80
2019-05-03T03:23:26.109Z,9.73
2019-05-03T03:25:52.073Z,10.43
2019-05-03T03:28:20.924Z,10.73
2019-05-03T03:33:33.482Z,11.20
2019-05-03T03:36:31.551Z,9.70
2019-05-03T03:38:31.140Z,9.37
2019-05-03T03:41:00.730Z,9.83
2019-05-03T03:43:29.569Z,9.60
2019-05-03T03:45:58.420Z,9.83
2019-05-03T03:48:27.842Z,9.47
2019-05-03T03:50:56.680Z,9.47
2019-05-03T03:53:26.388Z,9.40
2019-05-03T03:55:56.435Z,9.83
2019-05-03T03:58:23.381Z,9.23
2019-05-03T04:00:55.346Z,9.73
2019-05-03T04:03:21.628Z,9.77
2019-05-03T04:05:50.463Z,10.27
2019-05-03T04:08:20.067Z,9.87
2019-05-03T04:10:48.905Z,9.40
2019-05-03T04:13:17.752Z,10.07
2019-05-03T04:15:55.950Z,10.03
2019-05-03T04:18:25.592Z,10.60
2019-05-03T04:20:55.746Z,10.73
2019-05-03T04:23:22.334Z,10.10
2019-05-03T04:25:51.179Z,8.50
2019-05-03T04:28:20.038Z,8.80
2019-05-03T04:30:48.873Z,9.43
2019-05-03T04:33:17.732Z,9.47
2019-05-03T04:35:46.712Z,9.77
2019-05-03T04:38:16.187Z,9.60
2019-05-03T04:40:45.405Z,9.13
2019-05-03T04:43:13.136Z,9.03
2019-05-03T04:45:41.989Z,9.40
2019-05-03T04:48:10.820Z,8.70
2019-05-03T04:50:39.660Z,8.30
2019-05-03T04:53:08.507Z,8.00
2019-05-03T04:55:38.077Z,8.13
2019-05-03T04:58:06.937Z,6.30
2019-05-03T05:00:36.115Z,6.85
2019-05-03T05:03:05.895Z,4.63
2019-05-03T05:05:36.333Z,4.33
2019-05-03T05:08:05.900Z,4.20
2019-05-03T05:10:36.013Z,3.53
2019-05-03T05:13:02.201Z,3.83
2019-05-03T05:15:31.029Z,3.93
2019-05-03T05:18:01.848Z,3.60
2019-05-03T05:20:30.666Z,3.50
2019-05-03T05:22:59.523Z,3.10
2019-05-03T05:25:28.358Z,3.85
2019-05-03T05:27:58.842Z,3.20
2019-05-03T05:30:27.685Z,3.20
2019-05-03T05:32:56.530Z,2.90
2019-05-03T05:35:25.366Z,3.37
2019-05-03T05:37:54.956Z,3.00
2019-05-03T05:40:24.546Z,3.37
2019-05-03T05:42:54.507Z,3.80
2019-05-03T05:45:21.490Z,3.70
2019-05-03T05:47:50.334Z,4.20
2019-05-03T05:50:21.936Z,4.93
2019-05-03T05:52:50.768Z,4.87
2019-05-03T05:55:19.607Z,4.47
2019-05-03T05:58:03.021Z,5.50
2019-05-03T06:00:25.755Z,5.27
2019-05-03T06:02:52.720Z,6.00
2019-05-03T06:05:21.564Z,5.47
2019-05-03T06:07:51.154Z,5.97
2019-05-03T06:10:20.611Z,6.50
2019-05-03T06:12:49.572Z,6.60
2019-05-03T06:15:25.041Z,6.50
2019-05-03T06:17:52.867Z,6.97
2019-05-03T06:20:21.726Z,6.27
2019-05-03T06:22:50.635Z,6.82
2019-05-03T06:25:20.200Z,6.53
2019-05-03T06:27:49.028Z,6.70
2019-05-03T06:30:19.769Z,6.43
2019-05-03T06:32:48.607Z,6.50
2019-05-03T06:35:17.472Z,6.50
2019-05-03T06:37:46.316Z,6.73
2019-05-03T06:40:15.169Z,6.97
2019-05-03T06:42:52.484Z,6.97
2019-05-03T06:45:14.707Z,6.47
2019-05-03T06:47:46.076Z,7.03
2019-05-03T06:50:11.288Z,7.13
2019-05-03T06:52:40.129Z,7.57
2019-05-03T06:55:10.717Z,7.70
2019-05-03T06:57:40.094Z,7.30
2019-05-03T07:00:08.538Z,6.80
2019-05-03T07:02:38.285Z,7.13
2019-05-03T07:05:08.061Z,7.47
2019-05-03T07:07:41.576Z,7.03
2019-05-03T07:10:10.420Z,7.13
2019-05-03T07:12:45.581Z,6.63
2019-05-03T07:15:14.530Z,7.10
2019-05-03T07:17:45.014Z,7.37
2019-05-03T07:20:12.114Z,7.47
2019-05-03T07:22:40.949Z,7.20
2019-05-03T07:25:09.805Z,8.80
2019-05-03T07:27:38.636Z,8.77
2019-05-03T07:30:07.483Z,7.33
2019-05-03T07:32:36.390Z,7.43
2019-05-03T07:35:05.186Z,7.62
2019-05-03T07:37:34.874Z,6.87
2019-05-03T07:40:04.715Z,7.13
2019-05-03T07:42:31.834Z,7.13
2019-05-03T07:45:00.640Z,7.30
2019-05-03T07:47:29.497Z,7.23
2019-05-03T07:49:59.104Z,7.90
2019-05-03T07:52:27.963Z,8.03
2019-05-03T07:54:56.814Z,6.77
2019-05-03T07:57:25.698Z,7.30
2019-05-03T07:59:55.656Z,7.17
2019-05-03T08:02:25.195Z,7.30
2019-05-03T08:04:54.806Z,7.20
2019-05-03T08:07:23.052Z,6.97
2019-05-03T08:09:50.636Z,6.70
2019-05-03T08:12:19.490Z,7.10
2019-05-03T08:14:48.331Z,7.83
2019-05-03T08:17:17.174Z,7.07
2019-05-03T08:19:46.019Z,8.35
2019-05-03T08:22:15.534Z,7.67
2019-05-03T08:24:44.815Z,7.20
2019-05-03T08:27:14.815Z,7.57
2019-05-03T08:29:42.080Z,6.73
2019-05-03T08:32:15.366Z,6.33
2019-05-03T08:34:45.214Z,6.87
2019-05-03T08:37:12.708Z,6.73
2019-05-03T08:39:41.778Z,7.60
2019-05-03T08:42:10.355Z,6.90
2019-05-03T08:44:39.205Z,8.25
2019-05-03T08:47:08.046Z,7.03
2019-05-03T08:49:36.878Z,6.13
2019-05-03T08:52:06.482Z,6.40
2019-05-03T08:54:35.302Z,7.00
2019-05-03T08:57:06.212Z,6.65
2019-05-03T08:59:33.018Z,6.00
2019-05-03T09:02:03.675Z,6.68
2019-05-03T09:04:37.316Z,6.03
2019-05-03T09:06:59.569Z,6.00
2019-05-03T09:09:34.900Z,7.17
2019-05-03T09:12:04.741Z,6.53
2019-05-03T09:14:41.590Z,6.50
2019-05-03T09:17:01.704Z,6.13
2019-05-03T09:19:30.580Z,7.10
2019-05-03T09:21:59.379Z,6.80
2019-05-03T09:24:28.225Z,5.83
2019-05-03T09:26:57.078Z,5.80
2019-05-03T09:29:25.920Z,6.10
2019-05-03T09:31:55.447Z,6.07
2019-05-03T09:34:25.548Z,6.30
2019-05-03T09:36:52.451Z,6.40
2019-05-03T09:39:22.020Z,5.90
2019-05-03T09:41:50.912Z,6.65
2019-05-03T09:44:19.751Z,5.90
2019-05-03T09:46:48.626Z,6.23
2019-05-03T09:49:18.211Z,5.83
2019-05-03T09:51:47.058Z,5.83
2019-05-03T09:54:16.651Z,6.50
2019-05-03T09:56:55.947Z,5.17
2019-05-03T09:59:19.911Z,5.70
2019-05-03T10:01:49.328Z,5.97
2019-05-03T10:04:18.229Z,5.10
2019-05-03T10:06:47.017Z,4.93
2019-05-03T10:09:16.623Z,4.63
2019-05-03T10:11:46.445Z,5.70
2019-05-03T10:14:15.816Z,4.93
2019-05-03T10:16:46.525Z,5.47
2019-05-03T10:19:16.257Z,5.40
2019-05-03T10:21:44.980Z,4.97
2019-05-03T10:24:15.230Z,5.00
2019-05-03T10:26:42.630Z,4.60
2019-05-03T10:29:11.940Z,4.90
2019-05-03T10:31:42.269Z,4.27
2019-05-03T10:34:11.833Z,4.00
2019-05-03T10:36:40.680Z,4.27
2019-05-03T10:39:09.538Z,4.70
2019-05-03T10:41:38.387Z,3.73
2019-05-03T10:44:07.242Z,3.97
2019-05-03T10:46:36.820Z,4.17
2019-05-03T10:49:05.860Z,4.33
2019-05-03T10:51:35.950Z,3.83
2019-05-03T10:54:05.097Z,3.80
2019-05-03T10:56:37.326Z,4.22
2019-05-03T10:59:06.394Z,4.00
2019-05-03T11:01:35.898Z,4.10
2019-05-03T11:04:05.285Z,4.15
2019-05-03T11:06:33.558Z,4.20
2019-05-03T11:09:02.098Z,3.87
2019-05-03T11:11:30.924Z,3.83
2019-05-03T11:13:59.758Z,3.47
2019-05-03T11:16:29.351Z,3.90
2019-05-03T11:18:58.227Z,3.43
2019-05-03T11:21:30.304Z,4.07
2019-05-03T11:23:55.938Z,4.27
2019-05-03T11:26:25.252Z,4.07
2019-05-03T11:28:59.260Z,3.60
2019-05-03T11:31:27.992Z,3.73
2019-05-03T11:33:56.835Z,3.70
2019-05-03T11:36:31.838Z,3.80
2019-05-03T11:39:01.119Z,3.87
2019-05-03T11:41:32.698Z,3.70
2019-05-03T11:43:58.838Z,3.10
2019-05-03T11:46:27.714Z,2.83
2019-05-03T11:48:57.318Z,2.70
2019-05-03T11:51:26.157Z,2.53
2019-05-03T11:53:54.989Z,2.60
2019-05-03T11:56:24.985Z,2.70
2019-05-03T11:58:55.005Z,3.03
2019-05-03T12:01:22.267Z,2.83
2019-05-03T12:03:51.864Z,3.20
2019-05-03T12:06:20.713Z,3.15
2019-05-03T12:08:49.552Z,2.90
2019-05-03T12:11:18.407Z,2.67
2019-05-03T12:13:47.238Z,2.78
2019-05-03T12:16:23.599Z,2.90
2019-05-03T12:18:53.059Z,2.70
2019-05-03T12:21:17.624Z,2.40
2019-05-03T14:05:00.133Z,3.30
2019-05-03T14:07:29.028Z,3.50
2019-05-03T14:09:57.864Z,3.47
2019-05-03T14:12:26.722Z,3.70
2019-05-03T14:14:56.393Z,3.83
2019-05-03T14:17:25.261Z,3.97
2019-05-03T14:19:54.513Z,3.90
2019-05-03T14:22:22.237Z,3.77
2019-05-03T14:24:51.065Z,4.00
2019-05-03T14:27:19.911Z,4.10
2019-05-03T14:29:49.500Z,4.60
2019-05-03T14:32:25.661Z,5.00
2019-05-03T14:34:47.185Z,5.00
2019-05-03T14:37:16.051Z,4.40
2019-05-03T14:39:46.859Z,3.80
2019-05-03T14:42:15.300Z,4.30
2019-05-03T14:44:42.601Z,4.53
2019-05-03T14:47:11.489Z,4.33
2019-05-03T14:49:40.299Z,4.57
2019-05-03T14:52:09.165Z,4.63
2019-05-03T14:54:38.009Z,4.20
2019-05-03T14:57:10.394Z,4.50
2019-05-03T14:59:40.141Z,4.53
2019-05-03T15:02:09.898Z,4.70
2019-05-03T15:04:38.736Z,4.60
2019-05-03T15:07:07.595Z,4.93
2019-05-03T15:09:37.193Z,5.00
2019-05-03T15:12:06.820Z,5.00
2019-05-03T15:14:36.225Z,5.10
2019-05-03T15:17:05.440Z,4.67
2019-05-03T15:19:34.960Z,5.17
2019-05-03T15:22:02.777Z,4.90
2019-05-03T15:24:34.463Z,4.43
2019-05-03T15:27:01.969Z,5.00
2019-05-03T15:29:31.411Z,5.25
2019-05-03T15:32:00.279Z,4.50
2019-05-03T15:34:29.878Z,4.57
2019-05-03T15:36:59.461Z,5.82
2019-05-03T15:39:28.349Z,5.20
2019-05-03T15:41:57.173Z,3.80
2019-05-03T15:44:29.553Z,3.20
2019-05-03T15:47:02.390Z,2.73
2019-05-03T15:49:31.199Z,3.00
2019-05-03T15:52:00.029Z,2.60
2019-05-03T15:54:28.875Z,2.80
2019-05-03T15:56:57.957Z,3.03
2019-05-03T15:59:26.783Z,3.50
2019-05-03T16:01:56.380Z,3.50
2019-05-03T16:04:25.231Z,4.30
2019-05-03T16:06:55.442Z,3.97
2019-05-03T16:09:24.498Z,2.90
2019-05-03T16:11:51.785Z,2.50
2019-05-03T16:14:20.629Z,2.20
2019-05-03T16:16:50.207Z,2.40
2019-05-03T16:19:19.043Z,2.20
2019-05-03T16:21:47.883Z,2.20
2019-05-03T16:24:16.720Z,2.20
2019-05-03T16:26:51.112Z,2.40
2019-05-03T16:29:19.969Z,2.90
2019-05-03T16:31:48.819Z,3.10
2019-05-03T16:34:17.655Z,3.20
2019-05-03T16:36:46.485Z,3.37
2019-05-03T16:39:15.459Z,3.70
2019-05-03T16:41:44.733Z,3.57
2019-05-03T16:44:14.624Z,3.50
2019-05-03T16:46:42.663Z,3.67
2019-05-03T16:49:11.506Z,3.93
2019-05-03T16:51:40.346Z,3.57
2019-05-03T16:54:09.197Z,3.10
2019-05-03T16:56:38.087Z,3.63
2019-05-03T16:59:06.897Z,3.67
2019-05-03T17:01:36.477Z,3.87
2019-05-03T17:04:10.938Z,3.03
2019-05-03T17:06:40.404Z,2.70
2019-05-03T17:09:09.227Z,2.80
2019-05-03T17:11:38.068Z,2.73
2019-05-03T17:14:06.930Z,2.80
2019-05-03T17:16:35.779Z,2.70
2019-05-03T17:19:05.875Z,2.30
2019-05-03T17:21:34.968Z,2.50
2019-05-03T17:24:04.344Z,2.60
2019-05-03T17:26:31.945Z,2.47
2019-05-03T17:29:00.796Z,3.00
2019-05-03T17:31:29.629Z,3.90
2019-05-03T17:33:58.457Z,2.93
2019-05-03T17:36:27.308Z,2.97
2019-05-03T17:38:56.162Z,2.77
2019-05-03T17:41:30.468Z,2.70
2019-05-03T17:43:59.305Z,2.70
2019-05-03T17:46:28.890Z,2.50
2019-05-03T17:48:57.736Z,2.60
2019-05-03T17:51:32.171Z,2.37
2019-05-03T17:54:01.766Z,2.83
2019-05-03T17:56:30.673Z,2.60
2019-05-03T17:58:59.513Z,2.67
2019-05-03T18:01:31.243Z,2.70
2019-05-03T18:04:09.124Z,2.70
2019-05-03T18:06:34.791Z,2.80
2019-05-03T18:09:05.199Z,3.37
2019-05-03T18:11:39.707Z,3.40
2019-05-03T18:14:08.527Z,4.22
2019-05-03T18:16:38.115Z,3.93
2019-05-03T18:19:07.712Z,4.00
2019-05-03T18:21:37.293Z,4.10
2019-05-03T18:24:06.129Z,4.12
2019-05-03T18:26:35.550Z,3.77
2019-05-03T18:29:05.640Z,4.18
2019-05-03T18:31:32.676Z,3.50
2019-05-03T18:34:02.111Z,3.60
2019-05-03T18:36:32.336Z,3.55
2019-05-03T18:38:59.872Z,3.30
2019-05-03T18:41:28.693Z,3.40
2019-05-03T18:44:01.326Z,3.50
2019-05-03T18:46:30.928Z,3.40
2019-05-03T18:48:59.786Z,3.50
2019-05-03T18:51:28.643Z,3.83
2019-05-03T18:53:57.485Z,3.90
2019-05-03T18:56:26.356Z,3.53
2019-05-03T18:58:55.250Z,3.80
2019-05-03T19:01:25.283Z,3.47
2019-05-03T19:03:52.995Z,3.70
2019-05-03T19:06:21.848Z,3.73
2019-05-03T19:08:54.215Z,3.50
2019-05-03T19:11:26.217Z,3.20
2019-05-03T19:13:56.613Z,3.73
2019-05-03T19:16:30.440Z,3.87
2019-05-03T19:18:59.854Z,3.50
2019-05-03T19:21:28.713Z,3.87
2019-05-03T19:23:57.626Z,3.40
2019-05-03T19:26:26.478Z,4.10
2019-05-03T19:28:55.316Z,3.70
2019-05-03T19:31:25.152Z,3.77
2019-05-03T19:33:54.953Z,4.13
2019-05-03T19:36:21.870Z,3.87
2019-05-03T19:38:50.726Z,3.90
2019-05-03T19:41:19.579Z,5.03
2019-05-03T19:43:48.416Z,6.13
2019-05-03T19:46:17.279Z,6.60
2019-05-03T19:48:46.124Z,6.33
2019-05-03T19:51:14.983Z,6.40
2019-05-03T19:53:49.248Z,5.40
2019-05-03T19:56:18.094Z,5.57
2019-05-03T19:58:46.952Z,4.50
2019-05-03T20:01:18.714Z,4.33
2019-05-03T20:03:47.554Z,5.00
2019-05-03T20:06:17.202Z,5.23
2019-05-03T20:08:46.820Z,5.07
2019-05-03T20:11:15.636Z,5.83
2019-05-03T20:13:45.118Z,6.67
2019-05-03T20:16:15.430Z,6.93
2019-05-03T20:18:45.052Z,7.03
2019-05-03T20:21:35.001Z,7.37
2019-05-03T20:24:05.579Z,6.83
2019-05-03T20:26:34.611Z,7.20
2019-05-03T20:29:01.569Z,5.87
2019-05-03T20:31:30.421Z,5.00
2019-05-03T20:34:00.075Z,5.20
2019-05-03T20:36:28.913Z,4.93
2019-05-03T20:38:58.517Z,5.03
2019-05-03T20:41:28.102Z,5.53
2019-05-03T20:43:56.955Z,4.63
2019-05-03T20:46:28.408Z,5.20
2019-05-03T20:48:57.293Z,4.97
2019-05-03T20:51:26.150Z,4.80
2019-05-03T20:53:55.369Z,5.13
2019-05-03T20:56:24.624Z,5.60
2019-05-03T20:58:54.991Z,5.40
2019-05-03T21:01:22.353Z,5.68
2019-05-03T21:03:51.199Z,5.40
2019-05-03T21:06:32.055Z,5.20
2019-05-03T21:08:52.934Z,5.30
2019-05-03T21:11:17.769Z,5.00
2019-05-03T21:13:46.627Z,5.33
2019-05-03T21:16:21.330Z,5.65
2019-05-03T21:18:53.904Z,5.10
2019-05-03T21:21:24.890Z,5.23
2019-05-03T21:23:52.461Z,5.07
2019-05-03T21:26:21.352Z,4.67
2019-05-03T21:28:50.185Z,5.40
2019-05-03T21:31:19.018Z,5.70
2019-05-03T21:33:47.864Z,5.70
2019-05-03T21:36:16.709Z,6.00
2019-05-03T21:38:45.547Z,5.47
2019-05-03T21:41:15.635Z,5.83
2019-05-03T21:43:55.630Z,5.47
2019-05-03T21:46:25.539Z,5.67
2019-05-03T21:48:56.921Z,5.57
2019-05-03T21:51:25.751Z,5.80
2019-05-03T21:53:54.624Z,6.23
2019-05-03T21:56:26.726Z,5.53
2019-05-03T21:58:55.570Z,5.87
2019-05-03T22:01:25.909Z,5.70
2019-05-03T22:03:54.007Z,5.97
2019-05-03T22:06:24.698Z,7.00
2019-05-03T22:08:51.714Z,6.40
2019-05-03T22:11:20.562Z,6.27
2019-05-03T22:13:49.412Z,5.60
2019-05-03T22:16:20.126Z,5.90
2019-05-03T22:18:48.964Z,6.68
2019-05-03T22:21:18.559Z,5.73
2019-05-03T22:23:54.900Z,6.20
2019-05-03T22:26:21.869Z,6.50
2019-05-03T22:28:51.454Z,6.03
2019-05-03T22:31:20.320Z,6.20
2019-05-03T22:33:49.166Z,7.12
2019-05-03T22:36:18.010Z,6.37
2019-05-03T22:38:46.865Z,6.73
2019-05-03T22:41:15.712Z,6.70
2019-05-03T22:43:45.658Z,6.30
2019-05-03T22:46:14.546Z,6.78
2019-05-03T22:48:44.954Z,6.47
2019-05-03T22:51:11.814Z,6.13
2019-05-03T22:53:40.664Z,6.47
2019-05-03T22:56:09.510Z,5.70
2019-05-03T22:58:38.360Z,6.03
2019-05-03T23:01:07.938Z,6.40
2019-05-03T23:03:38.640Z,6.27
2019-05-03T23:06:19.344Z,6.27
2019-05-03T23:08:37.108Z,5.53
2019-05-03T23:11:06.678Z,5.63
2019-05-03T23:13:35.532Z,6.00
2019-05-03T23:16:05.146Z,6.43
2019-05-03T23:18:34.999Z,5.93
2019-05-03T23:21:04.718Z,6.10
2019-05-03T23:23:39.645Z,5.57
2019-05-03T23:26:08.524Z,5.90
2019-05-03T23:28:37.344Z,5.80
2019-05-03T23:31:06.197Z,6.13
2019-05-03T23:33:35.049Z,5.60
2019-05-03T23:36:04.583Z,6.22
2019-05-03T23:38:32.708Z,5.97
2019-05-03T23:41:01.570Z,6.00
2019-05-03T23:43:30.404Z,5.87
2019-05-03T23:45:59.270Z,6.23
2019-05-03T23:48:28.130Z,5.90
2019-05-03T23:50:56.966Z,6.40
2019-05-03T23:53:25.799Z,6.67
2019-05-03T23:55:55.298Z,6.43
2019-05-03T23:58:24.662Z,6.27
